createdAt,value
2023-01-19T00:00:56.457Z,97873.03
2023-01-19T00:03:23.290Z,97880.16
2023-01-19T00:05:50.207Z,97882.25
2023-01-19T00:08:17.702Z,97898.59
2023-01-19T00:10:47.007Z,97902.38
2023-01-19T00:13:14.470Z,97908.75
2023-01-19T00:15:41.715Z,97904.91
2023-01-19T00:18:10.634Z,97900.31
2023-01-19T00:20:37.905Z,97891.66
2023-01-19T00:23:05.262Z,97895.97
2023-01-19T00:25:32.138Z,97894.34
2023-01-19T00:28:01.344Z,97892.97
2023-01-19T00:30:28.878Z,97890.75
2023-01-19T00:32:55.891Z,97887.94
2023-01-19T00:35:22.868Z,97892.25
2023-01-19T00:37:49.882Z,97897.69
2023-01-19T00:40:17.330Z,97889.88
2023-01-19T00:42:44.683Z,97899.59
2023-01-19T00:45:16.251Z,97906.53
2023-01-19T00:47:43.544Z,97909.56
2023-01-19T00:50:17.116Z,97922.03
2023-01-19T00:52:45.555Z,97936.91
2023-01-19T00:55:16.079Z,97929.56
2023-01-19T00:57:44.668Z,97923.31
2023-01-19T01:00:14.300Z,97921.03
2023-01-19T01:02:44.150Z,97920.66
2023-01-19T01:05:12.165Z,97927.22
2023-01-19T01:07:41.339Z,97923.94
2023-01-19T01:10:10.070Z,97935.06
2023-01-19T01:12:37.635Z,97936.91
2023-01-19T01:15:09.345Z,97941.81
2023-01-19T01:17:36.806Z,97934.91
2023-01-19T01:20:07.957Z,97941.19
2023-01-19T01:22:35.067Z,97933.50
2023-01-19T01:25:01.916Z,97937.97
2023-01-19T01:27:28.715Z,97930.47
2023-01-19T01:29:55.529Z,97936.19
2023-01-19T01:32:22.270Z,97922.38
2023-01-19T01:34:49.054Z,97933.75
2023-01-19T01:37:15.736Z,97952.06
2023-01-19T01:39:42.537Z,97959.75
2023-01-19T01:42:17.769Z,97962.44
2023-01-19T01:44:50.438Z,97947.19
2023-01-19T01:56:48.567Z,97956.53
2023-01-19T01:59:29.737Z,97960.41
2023-01-19T02:02:16.449Z,97968.09
2023-01-19T02:04:48.217Z,97963.38
2023-01-19T02:07:37.418Z,97961.63
2023-01-19T02:10:22.979Z,97966.03
2023-01-19T02:13:08.157Z,97969.50
2023-01-19T02:15:34.750Z,97961.78
2023-01-19T02:18:01.354Z,97957.34
2023-01-19T02:20:30.404Z,97960.19
2023-01-19T02:23:02.000Z,97967.88
2023-01-19T02:25:29.315Z,97965.69
2023-01-19T02:27:55.886Z,97967.91
2023-01-19T02:30:22.735Z,97975.81
2023-01-19T02:32:49.533Z,97983.72
2023-01-19T02:35:16.227Z,97976.81
2023-01-19T02:37:43.848Z,97976.81
2023-01-19T02:40:13.461Z,97975.78
2023-01-19T02:42:44.623Z,97968.69
2023-01-19T02:45:12.860Z,97980.03
2023-01-19T02:47:41.132Z,97979.00
2023-01-19T02:50:32.262Z,97973.16
2023-01-19T02:53:17.676Z,97975.41
2023-01-19T02:55:54.707Z,97977.44
2023-01-19T02:59:00.179Z,97974.78
2023-01-19T03:02:02.030Z,97978.25
2023-01-19T03:05:05.869Z,97983.97
2023-01-19T03:07:56.235Z,97988.03
2023-01-19T03:11:01.856Z,97987.66
2023-01-19T03:16:54.307Z,98012.63
2023-01-19T03:19:43.264Z,98014.09
2023-01-19T03:22:23.806Z,98004.53
2023-01-19T03:28:07.606Z,98010.22
2023-01-19T03:30:40.129Z,98014.50
2023-01-19T03:33:15.116Z,98026.66
2023-01-19T03:35:49.749Z,98035.63
2023-01-19T03:38:19.928Z,98026.25
2023-01-19T03:40:48.112Z,98027.28
2023-01-19T03:43:17.104Z,98029.72
2023-01-19T03:45:44.553Z,98014.69
2023-01-19T03:48:11.522Z,98021.78
2023-01-19T03:50:38.250Z,98038.06
2023-01-19T03:53:11.807Z,98041.28
2023-01-19T03:55:40.752Z,98044.16
2023-01-19T03:58:07.692Z,98029.94
2023-01-19T04:00:36.761Z,98028.91
2023-01-19T04:03:05.178Z,98028.31
2023-01-19T04:05:33.695Z,98015.50
2023-01-19T04:08:00.724Z,98017.13
2023-01-19T04:10:27.388Z,98023.44
2023-01-19T04:12:58.383Z,98023.81
2023-01-19T04:15:26.032Z,98028.72
2023-01-19T04:17:52.706Z,98026.06
2023-01-19T04:20:20.053Z,98019.97
2023-01-19T04:22:46.727Z,98028.31
2023-01-19T04:25:13.323Z,98026.28
2023-01-19T04:27:39.891Z,98036.84
2023-01-19T04:30:07.479Z,98039.50
2023-01-19T04:32:34.067Z,98048.03
2023-01-19T04:35:00.882Z,98035.22
2023-01-19T04:37:27.776Z,98044.59
2023-01-19T04:39:54.370Z,98044.16
2023-01-19T04:42:21.663Z,98042.13
2023-01-19T04:44:48.611Z,98049.44
2023-01-19T04:47:15.515Z,98053.72
2023-01-19T04:49:42.085Z,98053.53
2023-01-19T04:52:08.738Z,98049.47
2023-01-19T04:54:35.413Z,98060.00
2023-01-19T04:57:02.282Z,98073.03
2023-01-19T04:59:28.836Z,98070.19
2023-01-19T05:01:56.453Z,98076.06
2023-01-19T05:04:24.221Z,98065.50
2023-01-19T05:06:51.928Z,98059.41
2023-01-19T05:09:18.483Z,98067.31
2023-01-19T05:11:45.136Z,98074.03
2023-01-19T05:14:11.828Z,98082.38
2023-01-19T05:16:38.391Z,98063.06
2023-01-19T05:19:04.996Z,98058.56
2023-01-19T05:21:31.662Z,98056.38
2023-01-19T05:23:58.238Z,98057.38
2023-01-19T05:26:25.355Z,98058.00
2023-01-19T05:28:51.979Z,98059.22
2023-01-19T05:31:19.589Z,98066.31
2023-01-19T05:33:46.284Z,98062.84
2023-01-19T05:36:12.879Z,98061.22
2023-01-19T05:38:39.461Z,98062.06
2023-01-19T05:41:06.055Z,98065.50
2023-01-19T05:43:32.700Z,98072.41
2023-01-19T05:45:59.292Z,98071.41
2023-01-19T05:48:26.030Z,98071.00
2023-01-19T05:50:57.566Z,98054.94
2023-01-19T05:53:24.207Z,98065.91
2023-01-19T05:55:50.782Z,98060.81
2023-01-19T05:58:17.392Z,98066.53
2023-01-19T06:00:43.967Z,98066.31
2023-01-19T06:03:10.638Z,98076.69
2023-01-19T06:05:39.455Z,98094.16
2023-01-19T06:08:06.265Z,98109.00
2023-01-19T06:10:33.048Z,98104.72
2023-01-19T06:13:00.040Z,98107.38
2023-01-19T06:15:26.883Z,98118.53
2023-01-19T06:17:53.465Z,98114.25
2023-01-19T06:20:20.185Z,98102.47
2023-01-19T06:22:47.647Z,98107.16
2023-01-19T06:25:14.470Z,98090.88
2023-01-19T06:27:45.178Z,98085.41
2023-01-19T06:30:12.686Z,98078.91
2023-01-19T06:32:39.268Z,98078.28
2023-01-19T06:35:07.820Z,98075.03
2023-01-19T06:37:34.655Z,98074.88
2023-01-19T06:40:01.297Z,98068.16
2023-01-19T06:42:28.230Z,98069.97
2023-01-19T06:44:54.826Z,98059.00
2023-01-19T06:47:21.500Z,98066.91
2023-01-19T06:49:49.060Z,98080.34
2023-01-19T06:52:17.537Z,98086.03
2023-01-19T06:54:45.248Z,98123.00
2023-01-19T06:57:13.170Z,98147.00
2023-01-19T06:59:39.741Z,98142.53
2023-01-19T07:02:26.639Z,98129.31
2023-01-19T07:04:53.020Z,98131.53
2023-01-19T07:07:19.605Z,98143.97
2023-01-19T07:09:46.194Z,98144.97
2023-01-19T07:12:14.776Z,98144.75
2023-01-19T07:14:41.720Z,98162.25
2023-01-19T07:17:08.823Z,98153.53
2023-01-19T07:19:35.900Z,98130.94
2023-01-19T07:22:03.290Z,98134.19
2023-01-19T07:24:34.305Z,98155.75
2023-01-19T07:27:01.035Z,98151.47
2023-01-19T07:29:27.854Z,98135.66
2023-01-19T07:31:54.796Z,98138.47
2023-01-19T07:34:21.672Z,98135.41
2023-01-19T07:36:48.829Z,98126.06
2023-01-19T07:39:15.865Z,98115.09
2023-01-19T07:41:42.513Z,98116.31
2023-01-19T07:44:09.635Z,98126.09
2023-01-19T07:46:36.208Z,98127.28
2023-01-19T07:49:03.269Z,98137.06
2023-01-19T07:51:30.355Z,98140.31
2023-01-19T07:53:57.525Z,98145.41
2023-01-19T07:56:27.923Z,98158.38
2023-01-19T07:58:54.995Z,98152.09
2023-01-19T08:01:22.469Z,98163.69
2023-01-19T08:03:49.985Z,98172.03
2023-01-19T08:06:21.148Z,98169.59
2023-01-19T08:08:48.343Z,98183.22
2023-01-19T08:11:15.819Z,98184.44
2023-01-19T08:13:43.866Z,98195.84
2023-01-19T08:16:12.229Z,98200.50
2023-01-19T08:18:40.020Z,98197.44
2023-01-19T08:21:10.419Z,98179.53
2023-01-19T08:23:37.698Z,98177.13
2023-01-19T08:26:20.614Z,98173.22
2023-01-19T08:28:47.425Z,98169.38
2023-01-19T08:31:20.366Z,98182.41
2023-01-19T08:33:49.600Z,98180.56
2023-01-19T08:36:16.602Z,98173.66
2023-01-19T08:38:45.431Z,98177.50
2023-01-19T08:41:12.892Z,98174.66
2023-01-19T08:43:39.637Z,98178.94
2023-01-19T08:46:06.503Z,98187.47
2023-01-19T08:48:33.563Z,98187.47
2023-01-19T08:51:00.564Z,98197.84
2023-01-19T08:53:27.279Z,98198.44
2023-01-19T08:56:00.036Z,98200.69
2023-01-19T08:58:27.128Z,98206.78
2023-01-19T09:00:54.108Z,98208.81
2023-01-19T09:03:24.193Z,98212.91
2023-01-19T09:05:50.896Z,98204.75
2023-01-19T09:08:17.826Z,98189.03
2023-01-19T09:10:49.885Z,98204.09
2023-01-19T09:13:18.535Z,98209.38
2023-01-19T09:21:51.078Z,98218.75
2023-01-19T09:24:17.685Z,98206.09
2023-01-19T09:26:44.317Z,98215.44
2023-01-19T09:29:10.918Z,98217.09
2023-01-19T09:31:37.519Z,98219.53
2023-01-19T09:37:07.713Z,98226.28
2023-01-19T09:39:34.314Z,98217.91
2023-01-19T09:42:24.967Z,98223.44
2023-01-19T09:44:53.242Z,98225.41
2023-01-19T09:47:22.782Z,98225.66
2023-01-19T09:49:58.868Z,98224.00
2023-01-19T09:52:26.254Z,98233.56
2023-01-19T09:54:55.910Z,98223.16
2023-01-19T09:57:24.305Z,98233.72
2023-01-19T09:59:51.601Z,98226.63
2023-01-19T10:02:26.962Z,98223.47
2023-01-19T10:05:15.605Z,98222.47
2023-01-19T10:08:03.522Z,98213.19
2023-01-19T10:10:37.854Z,98213.19
2023-01-19T10:13:17.479Z,98216.84
2023-01-19T10:16:07.548Z,98214.19
2023-01-19T10:18:48.483Z,98215.69
2023-01-19T10:21:39.107Z,98210.84
2023-01-19T10:24:43.726Z,98205.66
2023-01-19T10:27:18.953Z,98212.78
2023-01-19T10:29:45.849Z,98207.69
2023-01-19T10:32:13.026Z,98206.66
2023-01-19T10:34:40.251Z,98218.91
2023-01-19T10:37:30.804Z,98214.34
2023-01-19T11:01:24.780Z,98241.06
2023-01-19T11:04:00.898Z,98222.94
2023-01-19T11:06:31.188Z,98237.09
2023-01-19T11:09:19.524Z,98230.53
2023-01-19T11:11:52.657Z,98234.00
2023-01-19T11:14:24.843Z,98233.38
2023-01-19T11:16:54.970Z,98247.50
2023-01-19T11:19:31.715Z,98238.91
2023-01-19T11:22:11.776Z,98238.84
2023-01-19T11:24:40.523Z,98238.22
2023-01-19T11:27:12.045Z,98244.19
2023-01-19T11:29:40.756Z,98250.06
2023-01-19T11:32:22.426Z,98248.88
2023-01-19T11:34:50.551Z,98255.19
2023-01-19T11:37:20.621Z,98239.94
2023-01-19T11:39:50.213Z,98241.56
2023-01-19T11:42:18.775Z,98239.75
2023-01-19T11:44:58.084Z,98245.03
2023-01-19T11:47:53.913Z,98253.56
2023-01-19T11:50:36.207Z,98244.16
2023-01-19T11:53:10.365Z,98243.03
2023-01-19T11:55:54.166Z,98260.13
2023-01-19T11:58:21.525Z,98245.78
2023-01-19T12:00:50.656Z,98239.84
2023-01-19T12:03:36.312Z,98244.56
2023-01-19T12:09:36.347Z,98246.03
2023-01-19T12:12:06.153Z,98239.34
2023-01-19T12:15:09.363Z,98244.41
2023-01-19T12:17:45.969Z,98238.09
2023-01-19T12:20:24.179Z,98248.91
2023-01-19T12:23:07.572Z,98243.41
2023-01-19T12:25:49.731Z,98249.28
2023-01-19T12:28:17.982Z,98236.88
2023-01-19T12:30:50.343Z,98253.19
2023-01-19T12:33:39.869Z,98257.28
2023-01-19T12:36:11.850Z,98254.41
2023-01-19T12:38:50.489Z,98255.63
2023-01-19T12:41:18.637Z,98257.69
2023-01-19T12:43:46.095Z,98267.44
2023-01-19T12:46:32.209Z,98246.88
2023-01-19T12:49:21.544Z,98260.53
2023-01-19T12:51:50.426Z,98260.50
2023-01-19T12:54:32.190Z,98256.03
2023-01-19T12:57:03.017Z,98265.78
2023-01-19T12:59:31.519Z,98252.78
2023-01-19T13:02:20.929Z,98264.38
2023-01-19T13:05:25.024Z,98246.84
2023-01-19T13:08:08.594Z,98267.81
2023-01-19T13:11:09.780Z,98266.38
2023-01-19T13:13:38.919Z,98262.13
2023-01-19T13:16:21.743Z,98273.72
2023-01-19T13:19:18.652Z,98280.44
2023-01-19T14:59:35.445Z,98353.31
2023-01-19T15:02:02.836Z,98372.06
2023-01-19T15:04:29.831Z,98369.59
2023-01-19T15:06:56.974Z,98364.31
2023-01-19T15:09:24.791Z,98368.53
2023-01-19T15:11:52.298Z,98368.13
2023-01-19T15:14:20.375Z,98383.75
2023-01-19T15:16:48.522Z,98372.81
2023-01-19T15:19:17.148Z,98377.81
2023-01-19T15:21:47.025Z,98383.97
2023-01-19T15:24:17.604Z,98384.09
2023-01-19T15:26:44.785Z,98402.81
2023-01-19T15:29:21.020Z,98402.19
2023-01-19T15:31:48.189Z,98403.41
2023-01-19T15:34:15.450Z,98423.66
2023-01-19T15:36:42.804Z,98414.19
2023-01-19T15:39:10.837Z,98416.41
2023-01-19T15:41:39.623Z,98428.22
2023-01-19T15:44:11.680Z,98431.00
2023-01-19T15:46:39.939Z,98429.34
2023-01-19T15:49:07.320Z,98431.97
2023-01-19T15:51:34.872Z,98436.03
2023-01-19T15:54:08.313Z,98424.44
2023-01-19T15:56:35.437Z,98428.94
2023-01-19T15:59:02.730Z,98437.09
2023-01-19T16:01:32.404Z,98441.53
2023-01-19T16:04:02.084Z,98439.50
2023-01-19T16:06:31.394Z,98446.16
2023-01-19T16:09:01.707Z,98457.00
2023-01-19T16:11:30.756Z,98466.56
2023-01-19T16:13:58.349Z,98470.63
2023-01-19T16:16:26.293Z,98458.88
2023-01-19T16:18:53.784Z,98454.16
2023-01-19T16:21:20.744Z,98452.72
2023-01-19T16:23:48.070Z,98465.09
2023-01-19T16:26:41.304Z,98462.44
2023-01-19T16:29:10.731Z,98459.31
2023-01-19T16:31:42.765Z,98457.81
2023-01-19T16:34:25.511Z,98467.06
2023-01-19T16:36:52.583Z,98476.97
2023-01-19T16:39:19.764Z,98479.19
2023-01-19T16:41:46.803Z,98473.66
2023-01-19T16:44:15.778Z,98476.16
2023-01-19T16:46:45.960Z,98493.44
2023-01-19T16:49:15.883Z,98502.44
2023-01-19T16:51:43.164Z,98506.78
2023-01-19T16:54:21.244Z,98510.41
2023-01-19T16:56:50.221Z,98517.28
2023-01-19T16:59:18.061Z,98512.25
2023-01-19T17:01:46.811Z,98519.06
2023-01-19T17:04:15.622Z,98518.84
2023-01-19T17:06:43.334Z,98512.44
2023-01-19T17:09:10.600Z,98510.84
2023-01-19T17:11:38.138Z,98509.16
2023-01-19T17:14:11.152Z,98511.38
2023-01-19T17:16:38.883Z,98505.97
2023-01-19T17:19:06.987Z,98518.84
2023-01-19T17:21:35.171Z,98504.38
2023-01-19T17:24:03.197Z,98503.88
2023-01-19T17:26:31.300Z,98506.69
2023-01-19T17:29:09.361Z,98510.47
2023-01-19T17:31:37.524Z,98509.13
2023-01-19T17:34:04.590Z,98514.56
2023-01-19T17:36:34.948Z,98518.22
2023-01-19T17:39:06.231Z,98527.56
2023-01-19T17:41:37.759Z,98532.56
2023-01-19T17:44:06.088Z,98546.84
2023-01-19T17:46:36.443Z,98525.88
2023-01-19T17:49:06.083Z,98536.59
2023-01-19T17:51:33.236Z,98528.94
2023-01-19T17:54:00.577Z,98524.50
2023-01-19T17:56:30.622Z,98527.69
2023-01-19T17:58:58.295Z,98536.88
2023-01-19T18:01:27.893Z,98522.09
2023-01-19T18:03:55.561Z,98532.25
2023-01-19T18:06:22.880Z,98535.56
2023-01-19T18:08:52.648Z,98525.44
2023-01-19T18:11:20.458Z,98528.53
2023-01-19T18:13:49.572Z,98540.25
2023-01-19T18:16:22.331Z,98543.91
2023-01-19T18:18:50.758Z,98534.34
2023-01-19T18:21:21.981Z,98551.63
2023-01-19T18:23:50.548Z,98547.16
2023-01-19T18:26:22.765Z,98545.50
2023-01-19T18:28:55.818Z,98561.22
2023-01-19T18:31:23.102Z,98547.16
2023-01-19T18:33:51.422Z,98543.59
2023-01-19T18:36:18.991Z,98548.44
2023-01-19T18:38:46.383Z,98520.16
2023-01-19T18:41:15.913Z,98516.00
2023-01-19T18:43:43.709Z,98516.53
2023-01-19T18:46:11.583Z,98517.78
2023-01-19T18:48:39.783Z,98532.06
2023-01-19T18:51:08.810Z,98545.31
2023-01-19T18:53:36.180Z,98538.84
2023-01-19T18:56:05.621Z,98542.91
2023-01-19T18:58:33.478Z,98546.81
2023-01-19T19:01:02.119Z,98551.50
2023-01-19T19:03:29.454Z,98558.25
2023-01-19T19:05:56.998Z,98573.09
2023-01-19T19:08:24.198Z,98580.09
2023-01-19T19:10:51.365Z,98569.06
2023-01-19T19:13:21.978Z,98584.16
2023-01-19T19:15:49.101Z,98584.75
2023-01-19T19:18:16.608Z,98582.13
2023-01-19T19:20:43.850Z,98588.84
2023-01-19T19:23:11.754Z,98594.81
2023-01-19T19:25:39.177Z,98604.38
2023-01-19T19:28:06.917Z,98601.31
2023-01-19T19:30:35.764Z,98606.88
2023-01-19T19:33:03.028Z,98615.97
2023-01-19T19:35:30.015Z,98603.41
2023-01-19T19:37:57.661Z,98607.47
2023-01-19T19:40:26.086Z,98602.00
2023-01-19T19:42:53.124Z,98593.78
2023-01-19T19:45:22.610Z,98583.28
2023-01-19T19:47:51.056Z,98589.84
2023-01-19T19:50:17.893Z,98579.44
2023-01-19T19:52:54.351Z,98582.81
2023-01-19T19:55:23.975Z,98591.59
2023-01-19T19:57:54.264Z,98581.44
2023-01-19T20:00:24.562Z,98592.00
2023-01-19T20:02:52.889Z,98589.84
2023-01-19T20:05:19.935Z,98581.38
2023-01-19T20:07:48.352Z,98588.56
2023-01-19T20:10:17.964Z,98592.06
2023-01-19T20:12:45.047Z,98585.13
2023-01-19T20:15:11.877Z,98588.44
2023-01-19T20:17:38.795Z,98581.69
2023-01-19T20:20:06.401Z,98576.81
2023-01-19T20:22:33.523Z,98582.53
2023-01-19T20:25:01.532Z,98588.09
2023-01-19T20:27:28.722Z,98588.91
2023-01-19T20:29:58.272Z,98595.34
2023-01-19T20:32:25.375Z,98609.34
2023-01-19T20:34:56.601Z,98608.38
2023-01-19T20:37:23.767Z,98600.03
2023-01-19T20:39:52.734Z,98607.22
2023-01-19T20:42:19.705Z,98604.69
2023-01-19T20:44:49.681Z,98609.28
2023-01-19T20:47:16.771Z,98608.56
2023-01-19T20:49:46.178Z,98609.22
2023-01-19T20:52:14.715Z,98621.00
2023-01-19T20:54:42.116Z,98621.16
2023-01-19T20:57:09.767Z,98633.81
2023-01-19T20:59:38.691Z,98631.16
2023-01-19T21:02:08.490Z,98631.88
2023-01-19T21:04:35.600Z,98629.19
2023-01-19T21:07:03.647Z,98640.53
2023-01-19T21:09:30.580Z,98648.22
2023-01-19T21:11:57.670Z,98645.75
2023-01-19T21:14:24.918Z,98654.69
2023-01-19T21:16:51.991Z,98651.81
2023-01-19T21:19:20.383Z,98655.72
2023-01-19T21:21:54.914Z,98652.19
2023-01-19T21:24:23.539Z,98670.63
2023-01-19T21:26:53.093Z,98673.28
2023-01-19T21:29:21.428Z,98680.69
2023-01-19T21:31:48.544Z,98671.72
2023-01-19T21:34:25.129Z,98667.59
2023-01-19T21:36:54.285Z,98671.09
2023-01-19T21:39:21.524Z,98671.78
2023-01-19T21:41:51.743Z,98672.00
2023-01-19T21:44:18.515Z,98671.69
2023-01-19T21:46:45.105Z,98669.09
2023-01-19T21:49:17.699Z,98668.06
2023-01-19T21:51:49.040Z,98671.56
2023-01-19T21:54:15.625Z,98673.69
2023-01-19T21:56:45.581Z,98667.03
2023-01-19T21:59:14.681Z,98674.00
2023-01-19T22:01:42.483Z,98694.72
2023-01-19T22:04:09.132Z,98694.31
2023-01-19T22:06:38.449Z,98701.69
2023-01-19T22:09:05.417Z,98699.69
2023-01-19T22:11:32.000Z,98701.66
2023-01-19T22:13:59.733Z,98697.22
2023-01-19T22:16:27.836Z,98704.78
2023-01-19T22:19:01.035Z,98698.38
2023-01-19T22:21:35.896Z,98695.91
2023-01-19T22:24:04.223Z,98689.38
2023-01-19T22:26:31.627Z,98701.84
2023-01-19T22:29:07.493Z,98690.16
2023-01-19T22:31:34.313Z,98684.41
2023-01-19T22:34:02.588Z,98687.47
2023-01-19T22:36:31.187Z,98676.31
2023-01-19T22:39:02.855Z,98673.22
2023-01-19T22:41:31.687Z,98675.53
2023-01-19T22:44:02.291Z,98679.50
2023-01-19T22:46:31.738Z,98678.38
2023-01-19T22:48:58.771Z,98681.03
2023-01-19T22:51:26.692Z,98683.38
2023-01-19T22:53:54.738Z,98687.16
2023-01-19T22:56:26.036Z,98690.94
2023-01-19T22:58:54.817Z,98690.31
2023-01-19T23:01:23.964Z,98696.06
2023-01-19T23:03:51.080Z,98694.75
2023-01-19T23:06:25.715Z,98690.84
2023-01-19T23:08:54.890Z,98677.56
2023-01-19T23:11:26.626Z,98672.94
2023-01-19T23:13:53.865Z,98675.72
2023-01-19T23:16:21.088Z,98675.75
2023-01-19T23:18:48.198Z,98670.66
2023-01-19T23:21:19.568Z,98670.03
2023-01-19T23:23:46.465Z,98662.63
2023-01-19T23:26:13.961Z,98652.78
2023-01-19T23:28:41.098Z,98657.06
2023-01-19T23:31:21.531Z,98657.22
2023-01-19T23:33:51.998Z,98671.00
2023-01-19T23:36:21.665Z,98670.53
2023-01-19T23:38:55.401Z,98671.53
2023-01-19T23:41:23.055Z,98681.22
2023-01-19T23:43:50.046Z,98677.25
2023-01-19T23:46:17.892Z,98681.53
2023-01-19T23:48:44.816Z,98686.59
2023-01-19T23:51:12.744Z,98682.03
2023-01-19T23:53:39.905Z,98678.72
2023-01-19T23:56:21.701Z,98679.88
2023-01-19T23:58:53.627Z,98662.47
